createdAt,value
2022-12-08T00:03:05.091Z,1.30
2022-12-08T00:07:28.785Z,1.30
2022-12-08T00:11:33.992Z,1.40
2022-12-08T00:15:38.973Z,1.40
2022-12-08T00:19:44.835Z,1.40
2022-12-08T00:23:49.710Z,1.50
2022-12-08T00:27:54.585Z,1.50
2022-12-08T00:31:59.503Z,1.50
2022-12-08T00:36:14.235Z,1.50
2022-12-08T00:40:19.198Z,1.50
2022-12-08T00:44:24.347Z,1.50
2022-12-08T00:48:29.343Z,1.50
2022-12-08T00:52:34.320Z,1.50
2022-12-08T00:56:39.461Z,1.50
2022-12-08T01:00:44.856Z,1.50
2022-12-08T01:04:49.954Z,1.50
2022-12-08T01:08:54.811Z,1.60
2022-12-08T01:12:59.735Z,1.60
2022-12-08T01:17:04.660Z,1.60
2022-12-08T01:21:09.667Z,1.60
2022-12-08T01:25:14.603Z,1.60
2022-12-08T01:29:19.529Z,1.70
2022-12-08T01:33:24.478Z,1.70
2022-12-08T01:37:30.060Z,1.70
2022-12-08T01:41:37.693Z,1.70
2022-12-08T01:45:43.183Z,1.70
2022-12-08T01:49:48.639Z,1.70
2022-12-08T01:53:53.956Z,1.80
2022-12-08T01:58:27.581Z,1.70
2022-12-08T02:02:49.857Z,1.70
2022-12-08T02:06:55.521Z,1.70
2022-12-08T02:11:00.409Z,1.80
2022-12-08T02:15:06.084Z,1.80
2022-12-08T02:19:46.758Z,1.80
2022-12-08T02:23:59.881Z,1.90
2022-12-08T02:28:16.044Z,1.90
2022-12-08T02:33:04.266Z,1.90
2022-12-08T02:37:40.312Z,1.90
2022-12-08T02:42:00.447Z,2.00
2022-12-08T02:46:15.758Z,2.00
2022-12-08T02:50:21.086Z,2.00
2022-12-08T02:54:26.010Z,2.00
2022-12-08T02:59:02.306Z,2.10
2022-12-08T03:03:20.343Z,2.10
2022-12-08T03:07:49.400Z,2.10
2022-12-08T03:12:05.043Z,2.10
2022-12-08T03:16:14.557Z,2.10
2022-12-08T03:20:25.399Z,2.10
2022-12-08T03:24:42.254Z,2.20
2022-12-08T03:28:47.170Z,2.20
2022-12-08T03:32:53.218Z,2.20
2022-12-08T03:37:00.497Z,2.20
2022-12-08T03:41:21.088Z,2.20
2022-12-08T03:45:26.319Z,2.30
2022-12-08T03:49:31.234Z,2.20
2022-12-08T03:53:36.294Z,2.20
2022-12-08T03:57:41.473Z,2.20
2022-12-08T04:01:46.413Z,2.30
2022-12-08T04:05:51.260Z,2.30
2022-12-08T04:09:56.056Z,2.30
2022-12-08T04:14:00.940Z,2.30
2022-12-08T04:18:05.833Z,2.30
2022-12-08T04:22:10.632Z,2.30
2022-12-08T04:26:16.288Z,2.30
2022-12-08T04:30:21.043Z,2.30
2022-12-08T04:34:26.024Z,2.30
2022-12-08T04:38:31.176Z,2.30
2022-12-08T04:42:36.327Z,2.40
2022-12-08T04:46:43.539Z,2.30
2022-12-08T04:50:48.801Z,2.40
2022-12-08T04:54:53.699Z,2.40
2022-12-08T04:58:58.679Z,2.40
2022-12-08T05:03:03.771Z,2.40
2022-12-08T05:07:08.777Z,2.40
2022-12-08T05:11:14.404Z,2.40
2022-12-08T05:15:19.336Z,2.40
2022-12-08T05:19:24.666Z,2.40
2022-12-08T05:23:29.999Z,2.40
2022-12-08T05:27:35.535Z,2.40
2022-12-08T05:31:40.552Z,2.40
2022-12-08T05:35:45.629Z,2.30
2022-12-08T05:39:50.527Z,2.40
2022-12-08T05:43:55.398Z,2.40
2022-12-08T05:48:00.321Z,2.40
2022-12-08T05:52:05.380Z,2.70
2022-12-08T05:56:12.246Z,2.60
2022-12-08T06:00:18.219Z,2.50
2022-12-08T06:04:23.091Z,2.40
2022-12-08T06:08:28.042Z,2.40
2022-12-08T06:12:33.279Z,2.40
2022-12-08T06:16:38.693Z,2.40
2022-12-08T06:20:43.644Z,2.40
2022-12-08T06:24:48.578Z,2.40
2022-12-08T06:28:53.574Z,2.40
2022-12-08T06:32:58.369Z,2.40
2022-12-08T06:37:03.327Z,2.40
2022-12-08T06:41:08.559Z,2.40
2022-12-08T06:45:15.512Z,2.40
2022-12-08T06:49:20.507Z,2.40
2022-12-08T06:53:25.348Z,2.40
2022-12-08T06:57:30.774Z,2.40
2022-12-08T07:01:35.654Z,2.40
2022-12-08T07:05:40.734Z,2.40
2022-12-08T07:09:45.500Z,2.40
2022-12-08T07:13:50.935Z,2.40
2022-12-08T07:17:59.804Z,2.40
2022-12-08T07:22:04.983Z,2.40
2022-12-08T07:26:11.383Z,2.50
2022-12-08T07:30:16.298Z,2.40
2022-12-08T07:34:21.114Z,2.50
2022-12-08T07:38:26.293Z,2.50
2022-12-08T07:42:31.128Z,2.50
2022-12-08T07:46:36.148Z,2.50
2022-12-08T07:50:41.080Z,2.50
2022-12-08T07:54:45.864Z,2.50
2022-12-08T07:58:50.910Z,2.50
2022-12-08T08:02:55.768Z,2.50
2022-12-08T08:07:00.631Z,2.50
2022-12-08T08:11:14.603Z,2.50
2022-12-08T08:15:24.154Z,2.50
2022-12-08T08:19:29.079Z,2.50
2022-12-08T08:23:33.983Z,2.50
2022-12-08T08:27:38.828Z,2.60
2022-12-08T08:31:43.665Z,2.60
2022-12-08T08:35:48.544Z,2.60
2022-12-08T08:39:53.465Z,2.60
2022-12-08T08:43:58.256Z,2.60
2022-12-08T08:48:03.123Z,2.50
2022-12-08T08:52:07.931Z,2.60
2022-12-08T08:56:15.378Z,2.60
2022-12-08T09:00:20.439Z,2.70
2022-12-08T09:04:26.537Z,2.70
2022-12-08T09:08:31.486Z,2.70
2022-12-08T09:12:36.364Z,2.70
2022-12-08T09:16:42.677Z,2.70
2022-12-08T09:20:47.722Z,2.70
2022-12-08T09:24:52.656Z,2.70
2022-12-08T09:28:58.169Z,2.70
2022-12-08T09:33:03.451Z,2.70
2022-12-08T09:37:08.391Z,2.70
2022-12-08T09:41:48.597Z,2.70
2022-12-08T09:45:55.215Z,2.80
2022-12-08T09:50:37.983Z,2.70
2022-12-08T09:54:43.020Z,2.70
2022-12-08T09:59:16.974Z,2.70
2022-12-08T10:03:28.245Z,2.70
2022-12-08T10:07:48.869Z,2.70
2022-12-08T10:11:59.883Z,2.70
2022-12-08T10:16:29.831Z,2.70
2022-12-08T10:20:42.027Z,2.70
2022-12-08T10:25:11.775Z,2.70
2022-12-08T10:29:16.853Z,2.70
2022-12-08T10:33:22.632Z,2.70
2022-12-08T10:37:27.467Z,2.70
2022-12-08T10:41:32.565Z,2.80
2022-12-08T10:45:41.814Z,2.80
2022-12-08T10:49:46.782Z,2.90
2022-12-08T10:53:51.674Z,2.90
2022-12-08T10:57:56.752Z,2.90
2022-12-08T11:02:02.006Z,2.90
2022-12-08T11:06:17.082Z,2.90
2022-12-08T11:10:36.165Z,2.90
2022-12-08T11:14:44.062Z,3.00
2022-12-08T11:18:57.539Z,3.00
2022-12-08T11:23:03.963Z,2.90
2022-12-08T11:27:09.260Z,2.90
2022-12-08T11:31:43.485Z,2.90
2022-12-08T11:36:09.097Z,3.00
2022-12-08T11:40:36.168Z,3.00
2022-12-08T11:45:13.360Z,3.00
2022-12-08T11:49:18.899Z,3.00
2022-12-08T11:53:35.829Z,3.00
2022-12-08T11:57:40.820Z,3.00
2022-12-08T12:01:46.049Z,3.00
2022-12-08T12:10:55.250Z,3.00
2022-12-08T12:15:33.310Z,3.00
2022-12-08T12:19:39.995Z,2.90
2022-12-08T12:23:59.327Z,2.90
2022-12-08T12:28:08.289Z,2.90
2022-12-08T12:32:14.075Z,2.80
2022-12-08T12:36:22.352Z,2.80
2022-12-08T12:40:36.023Z,2.70
2022-12-08T12:44:41.162Z,2.70
2022-12-08T12:48:46.047Z,2.60
2022-12-08T12:52:51.606Z,2.60
2022-12-08T12:57:14.694Z,2.60
2022-12-08T13:01:22.856Z,2.60
2022-12-08T13:05:31.173Z,2.60
2022-12-08T13:09:39.753Z,2.60
2022-12-08T13:14:04.225Z,2.70
2022-12-08T13:18:27.697Z,2.70
2022-12-08T13:22:53.597Z,2.70
2022-12-08T13:27:04.512Z,2.60
2022-12-08T13:31:35.170Z,2.50
2022-12-08T13:35:47.545Z,2.50
2022-12-08T13:40:00.174Z,2.40
2022-12-08T13:50:36.594Z,2.40
2022-12-08T13:58:03.459Z,2.30
2022-12-08T14:02:40.775Z,2.30
2022-12-08T14:06:52.668Z,2.30
2022-12-08T14:11:06.422Z,2.30
2022-12-08T14:15:14.376Z,2.30
2022-12-08T14:19:22.713Z,2.30
2022-12-08T14:23:28.044Z,2.30
2022-12-08T14:27:36.246Z,2.30
2022-12-08T14:31:41.470Z,2.20
2022-12-08T14:35:53.492Z,2.20
2022-12-08T14:40:36.555Z,2.30
2022-12-08T14:44:41.536Z,2.20
2022-12-08T14:48:46.894Z,2.20
2022-12-08T14:52:53.045Z,2.20
2022-12-08T14:57:01.311Z,2.10
2022-12-08T15:01:08.338Z,2.10
2022-12-08T15:05:18.760Z,2.10
2022-12-08T15:09:34.804Z,2.10
2022-12-08T15:13:46.443Z,2.20
2022-12-08T15:18:02.397Z,2.10
2022-12-08T15:22:21.349Z,2.10
2022-12-08T15:26:28.280Z,2.20
2022-12-08T15:30:34.370Z,2.10
2022-12-08T15:34:39.283Z,2.10
2022-12-08T15:38:44.252Z,2.10
2022-12-08T15:42:49.710Z,2.10
2022-12-08T15:46:55.453Z,2.10
2022-12-08T15:51:00.402Z,2.20
2022-12-08T15:55:05.854Z,2.20
2022-12-08T15:59:22.920Z,2.20
2022-12-08T16:04:18.621Z,2.20
2022-12-08T16:07:57.984Z,2.20
2022-12-08T16:12:22.102Z,2.10
2022-12-08T16:16:30.083Z,2.10
2022-12-08T16:21:06.561Z,2.20
2022-12-08T16:25:09.526Z,2.10
2022-12-08T16:29:21.060Z,2.10
2022-12-08T16:33:26.031Z,2.00
2022-12-08T16:37:30.999Z,2.00
2022-12-08T16:41:54.239Z,2.00
2022-12-08T16:45:59.265Z,2.00
2022-12-08T16:50:14.538Z,2.00
2022-12-08T16:54:19.450Z,2.00
2022-12-08T16:58:24.364Z,2.00
2022-12-08T17:02:29.281Z,1.90
2022-12-08T17:06:34.248Z,1.90
2022-12-08T17:10:40.713Z,1.90
2022-12-08T17:14:45.657Z,1.90
2022-12-08T17:18:50.654Z,1.90
2022-12-08T17:22:58.067Z,1.80
2022-12-08T17:27:06.742Z,1.80
2022-12-08T17:31:14.030Z,1.80
2022-12-08T17:35:19.742Z,1.70
2022-12-08T17:39:25.219Z,1.70
2022-12-08T17:43:30.499Z,1.70
2022-12-08T17:47:35.391Z,1.70
2022-12-08T17:51:40.184Z,1.70
2022-12-08T17:55:57.325Z,1.70
2022-12-08T18:00:03.169Z,1.70
2022-12-08T18:04:10.437Z,1.70
2022-12-08T18:08:15.595Z,1.70
2022-12-08T18:12:23.665Z,1.70
2022-12-08T18:16:29.037Z,1.70
2022-12-08T18:20:34.886Z,1.70
2022-12-08T18:24:39.837Z,1.70
2022-12-08T18:28:44.784Z,1.70
2022-12-08T18:32:52.952Z,1.70
2022-12-08T18:37:02.258Z,1.70
2022-12-08T18:41:18.172Z,1.70
2022-12-08T18:45:23.254Z,1.70
2022-12-08T18:49:28.144Z,1.70
2022-12-08T18:53:33.025Z,1.70
2022-12-08T18:57:40.024Z,1.60
2022-12-08T19:01:44.957Z,1.60
2022-12-08T19:05:50.107Z,1.50
2022-12-08T19:09:56.170Z,1.50
2022-12-08T19:14:01.304Z,1.50
2022-12-08T19:18:06.284Z,1.40
2022-12-08T19:22:12.264Z,1.40
2022-12-08T19:26:18.034Z,1.30
2022-12-08T19:30:24.067Z,1.20
2022-12-08T19:34:28.951Z,1.20
2022-12-08T19:38:54.028Z,1.10
2022-12-08T19:43:17.537Z,1.10
2022-12-08T19:47:27.137Z,1.00
2022-12-08T19:51:32.149Z,0.90
2022-12-08T19:55:38.160Z,0.90
2022-12-08T19:59:43.184Z,0.80
2022-12-08T20:03:48.117Z,0.80
2022-12-08T20:07:55.680Z,0.80
2022-12-08T20:12:00.668Z,0.80
2022-12-08T20:16:06.359Z,0.90
2022-12-08T20:20:13.797Z,0.90
2022-12-08T20:24:19.886Z,0.90
2022-12-08T20:28:24.932Z,0.90
2022-12-08T20:32:29.967Z,0.90
2022-12-08T20:36:34.861Z,0.90
2022-12-08T20:40:46.313Z,0.90
2022-12-08T20:44:51.341Z,0.90
2022-12-08T20:48:56.433Z,0.90
2022-12-08T20:53:01.562Z,1.00
2022-12-08T20:57:06.645Z,1.00
2022-12-08T21:01:14.546Z,1.00
2022-12-08T21:05:20.675Z,1.10
2022-12-08T21:09:26.004Z,1.10
2022-12-08T21:13:31.489Z,1.10
2022-12-08T21:17:36.695Z,1.10
2022-12-08T21:21:41.901Z,1.20
2022-12-08T21:25:47.612Z,1.20
2022-12-08T21:29:52.639Z,1.20
2022-12-08T21:34:02.204Z,1.20
2022-12-08T21:38:07.412Z,1.20
2022-12-08T21:42:34.141Z,1.20
2022-12-08T21:46:39.670Z,1.20
2022-12-08T21:50:44.798Z,1.30
2022-12-08T21:54:49.751Z,1.30
2022-12-08T21:58:55.606Z,1.30
2022-12-08T22:03:00.604Z,1.30
2022-12-08T22:07:09.736Z,1.40
2022-12-08T22:11:14.879Z,1.40
2022-12-08T22:15:19.849Z,1.40
2022-12-08T22:19:24.846Z,1.40
2022-12-08T22:23:29.711Z,1.40
2022-12-08T22:27:34.690Z,1.40
2022-12-08T22:31:39.717Z,1.40
2022-12-08T22:35:44.641Z,1.50
2022-12-08T22:39:49.853Z,1.50
2022-12-08T22:43:55.045Z,1.50
2022-12-08T22:47:59.896Z,1.50
2022-12-08T22:52:05.101Z,1.50
2022-12-08T22:56:12.680Z,1.50
2022-12-08T23:00:18.907Z,1.50
2022-12-08T23:04:24.075Z,1.50
2022-12-08T23:08:29.333Z,1.50
2022-12-08T23:12:35.029Z,1.50
2022-12-08T23:16:40.012Z,1.50
2022-12-08T23:20:46.931Z,1.50
2022-12-08T23:24:51.874Z,1.60
2022-12-08T23:28:58.204Z,1.60
2022-12-08T23:33:03.200Z,1.60
2022-12-08T23:37:08.236Z,1.50
2022-12-08T23:41:15.100Z,1.50
2022-12-08T23:45:20.278Z,1.50
2022-12-08T23:49:25.206Z,1.50
2022-12-08T23:53:32.743Z,1.50
2022-12-08T23:57:38.640Z,1.60
